Amite, LA

5:09 AM CST on March 03, 2015 (GMT -0600)
6 Mi East of Amite | Change Station
CLOSE
Current Station
Personal Weather Station
Location: Amite City, LA
Elevation: 203 ft
Nearby Weather Stations
Active Advisory: Dense Fog Advisory

Elev 203 ft 30.73 °N, 90.42 °W | Updated 4 minutes ago

Fog
Fog
64.0 °F
Feels Like 64.0 °F
N
0.0
Wind Variable Wind from SSE
Gusts 5.0 mph

Today
High -- | Low -- °F
--% Chance of Precip.
Yesterday
High -- | Low -- °F
Precip. -- in
6:26 AM 6:02 PM
Waxing Gibbous, 95% visible
Pressure 30.11 in
Visibility 0.2 miles
Clouds
Dew Point 64 °F
Humidity 100%
Rainfall 0.00 in
Snow Depth Not available.
UV Not available.
Pollen 7.40 out of 12
Air Quality Not available.
Flu Activity Not available.
METAR KMCB 031053Z AUTO 00000KT 1/4SM FG VV002 16/16 A3011 RMK AO2 SLP194 T01610156

More Conditions Fewer Conditions

Pressure 30.11 in
Visibility 0.2 miles
Clouds
Dew Point 64 °F
Humidity 100%
Rainfall 0.00 in
Snow Depth Not available.
UV Not available.
Pollen 7.40 out of 12
Air Quality Not available.
Flu Activity Not available.
METAR KMCB 031053Z AUTO 00000KT 1/4SM FG VV002 16/16 A3011 RMK AO2 SLP194 T01610156

More Conditions Fewer Conditions

10-Day Weather Forecast

Almanac

Astronomy

Mar. 03, 2015 Rise Set
Actual Time
Civil Twilight
Nautical Twilight
Astronomical Twilight
Moon
Length of Visible Light
Length of Day
Tomorrow will be .
, % of the Moon is Illuminated

Today's Extremes

State Highs State Lows

Community

WunderPhotos

Upload Photos

1,802,087 photos uploaded!

WunderBlogs® & News

Nearby

Air Quality

  Air Quality AQ Index Pollutant
Not available.

Snow Depth

Station Depth Elevation

Earthquake Activity

City Distance Mag. Time & Date
Minimum magnitude displayed is 2.5.

Coastal Water Temperatures

Place Temperature

Nearby Weather Stations

Dense Fog Advisory
Statement as of 9:25 PM CST on March 02, 2015

... Dense fog advisory remains in effect until 9 am CST Tuesday...

* visibility... one quarter mile or less.

* Duration... tonight through mid morning Tuesday

* impacts... reduced visibilities on area roadways could cause
hazardous driving conditions through Tuesday morning.

Precautionary/preparedness actions...

A dense fog advisory means visibilities will frequently be
reduced to less than one quarter mile. If driving... slow down...
use your headlights... and leave plenty of distance ahead of you.